Time;durP1;ratioP1;P1;durP2;ratioP2;P2;SDS_P1;SDS_P2;PMS_P1;PMS_P2;Temp;Humidity;BMP_temperature;BMP_pressure;BME280_temperature;BME280_humidity;BME280_pressure;Samples;Min_cycle;Max_cycle;Signal;HPM_P1;HPM_P2
2021/09/20 00:01:40;;;;;;;11.50;5.63;;;14.70;99.90;;;;;;5070429;28;20967;-56
2021/09/20 00:04:06;;;;;;;10.80;5.93;;;14.80;99.90;;;;;;5069711;28;20399;-55
2021/09/20 00:06:31;;;;;;;10.80;6.40;;;14.80;99.90;;;;;;5070356;28;20372;-55
2021/09/20 00:08:57;;;;;;;10.90;6.20;;;14.80;99.90;;;;;;5069599;28;20380;-55
2021/09/20 00:11:23;;;;;;;10.33;5.40;;;14.80;99.90;;;;;;5070372;28;20375;-55
2021/09/20 00:13:48;;;;;;;10.50;6.20;;;14.80;99.90;;;;;;5069573;28;20383;-55
2021/09/20 00:16:14;;;;;;;10.30;6.00;;;14.80;99.90;;;;;;5070533;28;20865;-55
2021/09/20 00:18:40;;;;;;;10.65;5.65;;;14.80;99.90;;;;;;5068702;28;20499;-55
2021/09/20 00:21:06;;;;;;;10.03;6.20;;;14.80;99.90;;;;;;5070104;28;20466;-55
2021/09/20 00:23:31;;;;;;;13.20;6.50;;;14.90;99.90;;;;;;5070294;28;20733;-55
2021/09/20 00:25:58;;;;;;;12.32;6.10;;;15.00;99.90;;;;;;5069247;28;20962;-55
2021/09/20 00:28:25;;;;;;;10.65;6.05;;;15.00;99.90;;;;;;5070149;28;20384;-55
2021/09/20 00:30:51;;;;;;;10.50;6.00;;;14.90;99.90;;;;;;5069358;28;20403;-55
2021/09/20 00:33:18;;;;;;;12.80;6.10;;;14.90;99.90;;;;;;5069918;28;20410;-55
2021/09/20 00:35:45;;;;;;;9.80;5.80;;;14.90;99.90;;;;;;5069639;28;20398;-55
2021/09/20 00:38:11;;;;;;;11.40;5.73;;;14.90;99.90;;;;;;5099372;28;20470;-55
2021/09/20 00:40:36;;;;;;;10.20;6.30;;;15.00;99.90;;;;;;5069921;28;20872;-55
2021/09/20 00:43:03;;;;;;;10.43;5.63;;;14.90;99.90;;;;;;5069259;28;20455;-55
2021/09/20 00:45:29;;;;;;;10.27;5.80;;;14.90;99.90;;;;;;5069859;28;20383;-55
2021/09/20 00:47:55;;;;;;;11.95;6.20;;;14.80;99.90;;;;;;5069075;28;20427;-55
2021/09/20 00:50:21;;;;;;;10.05;5.90;;;14.80;99.90;;;;;;5062964;28;20802;-55
2021/09/20 00:52:47;;;;;;;10.37;5.70;;;14.70;99.90;;;;;;5059834;28;20418;-55
2021/09/20 00:55:13;;;;;;;12.23;6.40;;;14.80;99.90;;;;;;5069646;28;20412;-55
2021/09/20 00:57:44;;;;;;;13.20;6.60;;;14.80;99.90;;;;;;5068350;28;20494;-55
2021/09/20 01:00:11;;;;;;;11.20;6.10;;;14.70;99.90;;;;;;5069580;28;20372;-55
2021/09/20 01:02:37;;;;;;;10.50;6.20;;;14.70;99.90;;;;;;5068084;28;20513;-55
2021/09/20 01:05:04;;;;;;;10.50;5.78;;;14.60;99.90;;;;;;5069064;28;20372;-55
2021/09/20 01:07:30;;;;;;;11.07;6.72;;;14.50;99.90;;;;;;5069508;28;20399;-55
2021/09/20 01:09:55;;;;;;;12.03;6.50;;;14.40;99.90;;;;;;5068495;28;20387;-55
2021/09/20 01:12:21;;;;;;;11.10;6.10;;;14.40;99.90;;;;;;5068781;28;20384;-55
2021/09/20 01:14:47;;;;;;;11.83;6.90;;;14.30;99.90;;;;;;5068340;28;20437;-55
2021/09/20 01:17:13;;;;;;;10.15;6.25;;;14.40;99.90;;;;;;5068684;28;20869;-55
2021/09/20 01:19:38;;;;;;;11.77;6.67;;;14.40;99.90;;;;;;5069389;28;20379;-55
2021/09/20 01:22:12;;;;;;;10.70;5.93;;;14.40;99.90;;;;;;5068637;28;20542;-55
2021/09/20 01:24:38;;;;;;;12.68;7.10;;;14.50;99.90;;;;;;5069116;28;20436;-55
2021/09/20 01:27:04;;;;;;;10.67;6.00;;;14.50;99.90;;;;;;5068576;28;20380;-55
2021/09/20 01:29:30;;;;;;;11.80;6.10;;;14.60;99.90;;;;;;5069200;28;20421;-55
2021/09/20 01:31:58;;;;;;;13.00;7.17;;;14.60;99.90;;;;;;5068421;28;20425;-55
2021/09/20 01:34:24;;;;;;;11.75;6.75;;;14.60;99.90;;;;;;5069519;28;20376;-55
2021/09/20 01:36:52;;;;;;;11.55;6.50;;;14.70;99.90;;;;;;5068485;28;20379;-55
2021/09/20 01:39:19;;;;;;;11.70;6.30;;;14.80;99.90;;;;;;5068978;28;20827;-55
2021/09/20 01:41:47;;;;;;;10.23;6.32;;;14.60;99.90;;;;;;5066887;28;20392;-55
2021/09/20 01:44:14;;;;;;;12.25;6.43;;;14.60;99.90;;;;;;5068951;28;20466;-55
2021/09/20 01:46:50;;;;;;;12.30;6.20;;;14.60;99.90;;;;;;5068896;28;20384;-56
2021/09/20 01:49:15;;;;;;;10.88;6.18;;;14.60;99.90;;;;;;5069147;28;20392;-55
2021/09/20 01:51:41;;;;;;;12.47;6.50;;;14.60;99.90;;;;;;5068872;28;20467;-55
2021/09/20 01:54:08;;;;;;;12.43;6.22;;;14.60;99.90;;;;;;5068663;28;20387;-55
2021/09/20 01:56:34;;;;;;;10.18;5.65;;;14.70;99.90;;;;;;5069115;28;20403;-55
2021/09/20 01:59:01;;;;;;;11.13;6.25;;;14.60;99.90;;;;;;5068012;28;20765;-55
2021/09/20 02:01:27;;;;;;;11.77;6.40;;;14.60;99.90;;;;;;5069141;28;20380;-55
2021/09/20 02:03:53;;;;;;;13.85;7.20;;;14.60;99.90;;;;;;5068239;28;20384;-55
2021/09/20 02:06:20;;;;;;;12.33;6.97;;;14.60;99.90;;;;;;5068939;28;20384;-55
2021/09/20 02:08:46;;;;;;;12.40;6.43;;;14.60;99.90;;;;;;5068177;28;20391;-56
2021/09/20 02:11:12;;;;;;;11.05;6.45;;;14.60;99.90;;;;;;5067560;28;20387;-55
2021/09/20 02:13:38;;;;;;;11.53;6.30;;;14.60;99.90;;;;;;5069227;28;20376;-55
2021/09/20 02:16:05;;;;;;;11.80;6.80;;;14.60;99.90;;;;;;5068501;28;20368;-55
2021/09/20 02:18:31;;;;;;;11.70;6.55;;;15.70;99.90;;;;;;5068075;28;20841;-55
2021/09/20 02:20:56;;;;;;;14.17;6.40;;;14.60;99.90;;;;;;5066557;28;20423;-55
2021/09/20 02:23:22;;;;;;;11.55;6.65;;;14.70;99.90;;;;;;5068515;28;20496;-55
2021/09/20 02:25:48;;;;;;;11.00;6.60;;;14.60;99.90;;;;;;5067477;28;20653;-55
2021/09/20 02:28:14;;;;;;;11.18;6.75;;;14.60;99.90;;;;;;5070663;28;20479;-55
2021/09/20 02:30:40;;;;;;;12.90;6.43;;;14.60;99.90;;;;;;5072900;28;20386;-55
2021/09/20 02:33:07;;;;;;;11.45;6.00;;;14.60;99.90;;;;;;5071346;28;21249;-55
2021/09/20 02:35:32;;;;;;;11.20;6.50;;;14.70;99.90;;;;;;5072514;28;20415;-55
2021/09/20 02:37:58;;;;;;;11.18;6.20;;;14.70;99.90;;;;;;5071626;28;20494;-55
2021/09/20 02:40:24;;;;;;;10.88;6.20;;;14.60;99.90;;;;;;5072280;28;20865;-55
2021/09/20 02:42:50;;;;;;;10.40;6.50;;;12.60;99.90;;;;;;5071710;28;20943;-55
2021/09/20 02:45:16;;;;;;;11.90;6.70;;;14.40;99.90;;;;;;5070921;28;20396;-55
2021/09/20 02:47:42;;;;;;;11.13;6.70;;;14.20;99.90;;;;;;5072246;28;20386;-55
2021/09/20 02:50:09;;;;;;;11.27;6.60;;;13.00;99.90;;;;;;5071606;28;20444;-55
2021/09/20 02:52:35;;;;;;;11.50;6.97;;;14.20;99.90;;;;;;5072105;28;20457;-55
2021/09/20 02:55:00;;;;;;;12.10;6.80;;;14.20;99.90;;;;;;5070945;28;20920;-55
2021/09/20 02:57:26;;;;;;;11.73;6.95;;;14.10;99.90;;;;;;5071834;28;20461;-55
2021/09/20 02:59:52;;;;;;;11.90;6.90;;;14.10;99.90;;;;;;5071326;28;20387;-55
2021/09/20 03:02:18;;;;;;;12.30;6.40;;;14.00;99.90;;;;;;5072060;28;20384;-55
2021/09/20 03:04:44;;;;;;;12.57;7.00;;;14.10;99.90;;;;;;5071561;28;20889;-55
2021/09/20 03:07:10;;;;;;;11.82;6.90;;;14.10;99.90;;;;;;5071571;28;20391;-55
2021/09/20 03:09:36;;;;;;;14.90;7.03;;;14.10;99.90;;;;;;5071928;28;20807;-55
2021/09/20 03:12:02;;;;;;;12.25;6.95;;;14.10;99.90;;;;;;5070992;28;20375;-55
2021/09/20 03:14:27;;;;;;;12.33;7.10;;;14.10;99.90;;;;;;5071463;28;20722;-55
2021/09/20 03:16:53;;;;;;;13.57;7.30;;;14.10;99.90;;;;;;5071227;28;20394;-55
2021/09/20 03:19:19;;;;;;;13.80;7.20;;;14.10;99.90;;;;;;5071866;28;20443;-55
2021/09/20 03:21:44;;;;;;;14.15;7.30;;;14.00;99.90;;;;;;5069979;28;20438;-55
2021/09/20 03:24:12;;;;;;;13.03;6.90;;;14.00;99.90;;;;;;5071083;28;20391;-55
2021/09/20 03:26:38;;;;;;;15.18;7.50;;;14.00;99.90;;;;;;5071601;28;20376;-55
2021/09/20 03:29:04;;;;;;;12.13;6.78;;;13.90;99.90;;;;;;5070908;28;20471;-55
2021/09/20 03:31:30;;;;;;;11.90;7.00;;;13.90;99.90;;;;;;5071220;28;20986;-55
2021/09/20 03:33:55;;;;;;;12.10;7.50;;;13.90;99.90;;;;;;5070294;28;20421;-55
2021/09/20 03:36:21;;;;;;;15.07;7.32;;;13.00;99.90;;;;;;5069969;28;20931;-55
2021/09/20 03:38:47;;;;;;;11.67;6.40;;;13.90;99.90;;;;;;5069766;28;20785;-55
2021/09/20 03:41:12;;;;;;;11.63;7.00;;;14.00;99.90;;;;;;5062424;28;20494;-55
2021/09/20 03:43:38;;;;;;;11.93;6.67;;;14.00;99.90;;;;;;5090170;28;20394;-55
2021/09/20 03:46:04;;;;;;;12.60;6.93;;;14.20;99.90;;;;;;5059936;28;20617;-55
2021/09/20 03:48:29;;;;;;;13.05;6.85;;;14.30;99.90;;;;;;5055346;28;20484;-55
2021/09/20 03:50:55;;;;;;;12.80;7.13;;;14.30;99.90;;;;;;5070326;28;20729;-54
2021/09/20 03:53:21;;;;;;;14.40;7.80;;;14.20;99.90;;;;;;5067612;28;20387;-54
2021/09/20 03:55:46;;;;;;;12.60;7.13;;;14.20;99.90;;;;;;5055383;28;20409;-54
2021/09/20 03:58:12;;;;;;;13.10;6.80;;;14.30;99.90;;;;;;5057108;28;20463;-54
2021/09/20 04:00:38;;;;;;;13.30;7.68;;;14.30;99.90;;;;;;5069109;28;20719;-54
2021/09/20 04:03:04;;;;;;;12.63;7.57;;;14.20;99.90;;;;;;5069843;28;20521;-54
2021/09/20 04:05:30;;;;;;;13.65;7.20;;;14.20;99.90;;;;;;5068489;28;20771;-54
2021/09/20 04:07:55;;;;;;;13.00;7.85;;;14.30;99.90;;;;;;5064279;28;20388;-54
2021/09/20 04:10:21;;;;;;;13.93;7.72;;;14.40;99.90;;;;;;5060599;28;20452;-54
2021/09/20 04:12:47;;;;;;;14.03;7.80;;;14.40;99.90;;;;;;5057646;28;20373;-54
2021/09/20 04:15:12;;;;;;;12.90;7.45;;;14.50;99.90;;;;;;5050899;28;20444;-54
2021/09/20 04:17:38;;;;;;;11.97;6.87;;;14.40;99.90;;;;;;5050237;28;20758;-54
2021/09/20 04:20:05;;;;;;;12.98;7.45;;;14.30;99.90;;;;;;5049823;28;20382;-54
2021/09/20 04:22:31;;;;;;;11.40;6.90;;;14.40;99.90;;;;;;5050488;28;20389;-54
2021/09/20 04:24:57;;;;;;;12.30;7.50;;;14.30;99.90;;;;;;5049688;28;20477;-54
2021/09/20 04:27:22;;;;;;;15.63;7.53;;;14.40;99.90;;;;;;5060435;28;20418;-54
2021/09/20 04:29:48;;;;;;;10.95;6.75;;;14.40;99.90;;;;;;5059595;28;20387;-54
2021/09/20 04:32:15;;;;;;;13.13;6.77;;;14.40;99.90;;;;;;5064052;28;20510;-54
2021/09/20 04:34:40;;;;;;;13.20;7.30;;;14.40;99.90;;;;;;5070327;28;20384;-54
2021/09/20 04:37:06;;;;;;;14.05;7.40;;;14.40;99.90;;;;;;5053060;28;20431;-54
2021/09/20 04:39:32;;;;;;;14.70;7.10;;;14.40;99.90;;;;;;5049888;28;20416;-54
2021/09/20 04:41:58;;;;;;;11.65;6.80;;;14.40;99.90;;;;;;5058788;28;20411;-54
2021/09/20 04:44:23;;;;;;;12.27;6.80;;;14.50;99.90;;;;;;5069802;28;20400;-55
2021/09/20 04:46:49;;;;;;;11.60;6.70;;;14.50;99.90;;;;;;5067662;28;20868;-55
2021/09/20 04:49:15;;;;;;;12.02;6.75;;;14.50;99.90;;;;;;5069458;28;20527;-55
2021/09/20 04:51:41;;;;;;;11.75;6.50;;;14.60;99.90;;;;;;5062985;28;20384;-55
2021/09/20 04:54:07;;;;;;;14.83;7.77;;;14.60;99.90;;;;;;5065209;28;21042;-55
2021/09/20 04:56:32;;;;;;;14.00;7.35;;;14.60;99.90;;;;;;5067269;28;20410;-55
2021/09/20 04:58:58;;;;;;;11.80;6.70;;;14.70;99.90;;;;;;5068421;28;20808;-55
2021/09/20 05:01:25;;;;;;;12.70;7.68;;;14.70;99.90;;;;;;5069043;28;20415;-55
2021/09/20 05:03:50;;;;;;;11.40;6.40;;;14.60;99.90;;;;;;5068250;28;20908;-55
2021/09/20 05:06:16;;;;;;;14.90;6.70;;;14.70;99.90;;;;;;5068017;28;20471;-55
2021/09/20 05:08:42;;;;;;;11.90;7.00;;;14.80;99.90;;;;;;5069117;28;20414;-55
2021/09/20 05:11:08;;;;;;;12.13;6.50;;;14.90;99.90;;;;;;5068148;28;20810;-55
2021/09/20 05:13:34;;;;;;;12.13;6.82;;;14.80;99.90;;;;;;5069129;28;20425;-55
2021/09/20 05:16:00;;;;;;;11.95;6.70;;;14.80;99.90;;;;;;5068443;28;20379;-55
2021/09/20 05:18:25;;;;;;;15.38;7.00;;;14.70;99.90;;;;;;5069010;28;20511;-57
2021/09/20 05:20:51;;;;;;;13.43;7.18;;;14.80;99.90;;;;;;5067149;28;20780;-55
2021/09/20 05:23:17;;;;;;;13.93;6.97;;;14.90;99.90;;;;;;5067692;28;20418;-55
2021/09/20 05:25:42;;;;;;;11.20;6.73;;;14.90;99.90;;;;;;5069442;28;20740;-55
2021/09/20 05:28:08;;;;;;;15.25;7.20;;;14.90;99.90;;;;;;5068695;28;20403;-55
2021/09/20 05:30:34;;;;;;;13.90;7.10;;;15.10;99.90;;;;;;5066002;28;20397;-55
2021/09/20 05:33:00;;;;;;;13.60;7.38;;;15.10;99.90;;;;;;5064824;28;20393;-55
2021/09/20 05:35:26;;;;;;;12.13;7.10;;;15.10;99.90;;;;;;5054624;28;20390;-55
2021/09/20 05:37:52;;;;;;;13.93;7.37;;;15.20;99.90;;;;;;5048462;28;20413;-55
2021/09/20 05:40:18;;;;;;;14.65;8.40;;;15.10;99.90;;;;;;5047847;28;20385;-55
2021/09/20 05:42:44;;;;;;;13.10;7.33;;;15.10;99.90;;;;;;5049368;28;20461;-55
2021/09/20 05:45:11;;;;;;;12.60;6.80;;;15.00;99.90;;;;;;5048620;28;20393;-55
2021/09/20 05:47:38;;;;;;;15.23;7.38;;;15.00;99.90;;;;;;5048798;28;20377;-55
2021/09/20 05:50:05;;;;;;;13.30;7.53;;;15.10;99.90;;;;;;5060896;28;20452;-55
2021/09/20 05:52:31;;;;;;;12.60;7.40;;;15.20;99.90;;;;;;5068861;28;20452;-55
2021/09/20 05:54:56;;;;;;;15.57;7.82;;;15.20;99.90;;;;;;5067811;28;20924;-55
2021/09/20 05:57:22;;;;;;;12.57;6.40;;;15.20;99.90;;;;;;5068490;28;20848;-55
2021/09/20 05:59:48;;;;;;;13.27;7.00;;;15.30;99.90;;;;;;5067773;28;20853;-55
2021/09/20 06:02:15;;;;;;;12.50;7.10;;;15.20;99.90;;;;;;5069199;28;20419;-55
2021/09/20 06:04:42;;;;;;;14.27;6.97;;;15.20;99.90;;;;;;5072579;28;20398;-55
2021/09/20 06:07:08;;;;;;;12.97;7.77;;;15.30;99.90;;;;;;5071624;28;20470;-55
2021/09/20 06:09:35;;;;;;;14.60;8.10;;;15.30;99.90;;;;;;5072382;28;20433;-55
2021/09/20 06:12:02;;;;;;;14.00;7.20;;;15.10;99.90;;;;;;5071777;28;20425;-55
2021/09/20 06:14:28;;;;;;;13.27;7.53;;;15.10;99.90;;;;;;5072710;28;20371;-55
2021/09/20 06:16:54;;;;;;;11.85;7.45;;;15.00;99.90;;;;;;5071880;28;20437;-55
2021/09/20 06:19:19;;;;;;;12.43;6.90;;;15.00;99.90;;;;;;5072001;28;20438;-55
2021/09/20 06:21:45;;;;;;;13.27;7.40;;;15.00;99.90;;;;;;5071850;28;20375;-55
2021/09/20 06:24:11;;;;;;;16.15;7.38;;;15.10;99.90;;;;;;5070414;28;20498;-55
2021/09/20 06:26:37;;;;;;;14.73;7.60;;;15.20;99.90;;;;;;5072070;28;20517;-55
2021/09/20 06:29:03;;;;;;;13.90;7.53;;;15.20;99.90;;;;;;5071467;28;20379;-55
2021/09/20 06:31:28;;;;;;;14.50;8.17;;;15.20;99.90;;;;;;5072494;28;20376;-55
2021/09/20 06:33:54;;;;;;;15.35;8.38;;;15.20;99.90;;;;;;5071023;28;20383;-55
2021/09/20 06:36:20;;;;;;;14.17;7.70;;;15.20;99.90;;;;;;5071657;28;20849;-55
2021/09/20 06:38:45;;;;;;;14.60;7.45;;;15.30;99.90;;;;;;5070879;28;20978;-55
2021/09/20 06:41:11;;;;;;;11.70;7.40;;;15.50;99.90;;;;;;5071514;28;20441;-55
2021/09/20 06:43:37;;;;;;;15.57;8.40;;;15.50;99.90;;;;;;5072017;28;20710;-55
2021/09/20 06:46:03;;;;;;;15.00;7.70;;;15.60;99.90;;;;;;5071339;28;20520;-55
2021/09/20 06:48:29;;;;;;;13.82;7.90;;;15.80;99.90;;;;;;5071804;28;20388;-55
2021/09/20 06:50:54;;;;;;;13.07;7.93;;;15.80;99.90;;;;;;5070965;28;20771;-55
2021/09/20 06:53:20;;;;;;;15.40;8.70;;;15.70;99.90;;;;;;5071885;28;20448;-55
2021/09/20 06:55:45;;;;;;;15.67;8.90;;;15.70;99.90;;;;;;5071098;28;20934;-55
2021/09/20 06:58:11;;;;;;;15.10;8.60;;;15.70;99.90;;;;;;5070759;28;20416;-55
2021/09/20 07:00:37;;;;;;;17.60;8.87;;;15.60;99.90;;;;;;5071360;28;20388;-55
2021/09/20 07:03:03;;;;;;;16.98;9.35;;;15.60;99.90;;;;;;5070903;28;20388;-55
2021/09/20 07:05:28;;;;;;;17.80;9.50;;;15.60;99.90;;;;;;5070823;28;20376;-55
2021/09/20 07:07:54;;;;;;;18.25;11.27;;;15.70;99.90;;;;;;5070615;28;20387;-55
2021/09/20 07:10:20;;;;;;;17.20;10.60;;;15.80;99.90;;;;;;5071320;28;20464;-55
2021/09/20 07:12:46;;;;;;;18.05;9.77;;;15.80;99.90;;;;;;5071176;28;20819;-55
2021/09/20 07:15:13;;;;;;;16.23;9.43;;;15.90;99.90;;;;;;5069765;28;21227;-55
2021/09/20 07:17:39;;;;;;;17.55;9.75;;;15.90;99.90;;;;;;5071441;28;21051;-55
2021/09/20 07:20:05;;;;;;;15.10;9.17;;;16.10;99.90;;;;;;5070637;28;20388;-55
2021/09/20 07:22:31;;;;;;;17.53;9.37;;;16.10;99.90;;;;;;5071134;28;20379;-55
2021/09/20 07:24:56;;;;;;;20.17;11.98;;;16.20;99.90;;;;;;5070250;28;20379;-55
2021/09/20 07:27:22;;;;;;;14.90;8.70;;;16.20;99.90;;;;;;5070796;28;20384;-55
2021/09/20 07:29:48;;;;;;;15.40;8.80;;;16.20;99.90;;;;;;5071104;28;20723;-55
2021/09/20 07:32:14;;;;;;;15.38;8.73;;;16.40;99.90;;;;;;5070314;28;20787;-55
2021/09/20 07:34:39;;;;;;;16.27;8.77;;;16.40;99.90;;;;;;5070169;28;20387;-55
2021/09/20 07:37:05;;;;;;;15.32;9.13;;;16.50;99.90;;;;;;5069941;28;20384;-55
2021/09/20 07:39:32;;;;;;;16.75;8.88;;;16.60;99.90;;;;;;5070923;28;20900;-55
2021/09/20 07:41:59;;;;;;;16.42;9.00;;;16.60;99.90;;;;;;5068640;28;20731;-55
2021/09/20 07:44:24;;;;;;;16.67;8.80;;;16.80;99.90;;;;;;5070593;28;20897;-55
2021/09/20 07:46:50;;;;;;;15.10;8.70;;;16.70;99.90;;;;;;5069948;28;20415;-55
2021/09/20 07:49:16;;;;;;;14.90;8.52;;;16.70;99.90;;;;;;5070208;28;20383;-55
2021/09/20 07:51:42;;;;;;;15.47;8.23;;;16.80;99.90;;;;;;5070402;28;20718;-55
2021/09/20 07:54:07;;;;;;;14.63;8.23;;;16.80;99.90;;;;;;5070298;28;20391;-55
2021/09/20 07:56:33;;;;;;;13.83;8.13;;;16.60;99.90;;;;;;5070695;28;20889;-55
2021/09/20 07:59:01;;;;;;;15.63;8.93;;;16.40;99.90;;;;;;5069711;28;20410;-55
2021/09/20 08:01:27;;;;;;;16.77;8.48;;;16.10;99.90;;;;;;5070216;28;20380;-55
2021/09/20 08:03:53;;;;;;;16.70;9.65;;;15.90;99.90;;;;;;5069599;28;20383;-55
2021/09/20 08:06:19;;;;;;;16.70;9.10;;;16.00;99.90;;;;;;5070003;28;20376;-55
2021/09/20 08:08:44;;;;;;;15.85;8.77;;;16.30;99.90;;;;;;5070423;28;20441;-55
2021/09/20 08:11:11;;;;;;;18.10;8.37;;;16.40;99.90;;;;;;5069583;28;20380;-55
2021/09/20 08:13:37;;;;;;;14.07;8.17;;;16.70;99.90;;;;;;5070668;28;20386;-55
2021/09/20 08:16:02;;;;;;;15.13;8.68;;;16.70;99.90;;;;;;5068938;28;20383;-55
2021/09/20 08:18:28;;;;;;;15.73;9.50;;;16.80;99.90;;;;;;5069983;28;20524;-55
2021/09/20 08:20:54;;;;;;;17.07;9.07;;;16.90;99.90;;;;;;5069102;28;20853;-55
2021/09/20 08:23:21;;;;;;;16.20;10.07;;;17.00;99.90;;;;;;5069619;28;20391;-55
2021/09/20 08:25:46;;;;;;;17.80;9.40;;;17.30;99.90;;;;;;5069917;28;20427;-55
2021/09/20 08:28:12;;;;;;;15.27;8.75;;;17.40;99.90;;;;;;5069287;28;20888;-53
2021/09/20 08:30:39;;;;;;;13.98;8.02;;;17.50;99.90;;;;;;5069648;28;20463;-53
2021/09/20 08:33:05;;;;;;;17.40;9.25;;;17.40;99.90;;;;;;5069092;28;20393;-55
2021/09/20 08:35:31;;;;;;;15.40;8.48;;;17.40;99.90;;;;;;5069928;28;20513;-55
2021/09/20 08:37:57;;;;;;;13.87;8.07;;;17.10;99.90;;;;;;5068247;28;20498;-55
2021/09/20 08:40:23;;;;;;;16.73;10.27;;;17.00;99.90;;;;;;5070045;28;20372;-55
2021/09/20 08:42:50;;;;;;;18.63;10.23;;;17.00;99.90;;;;;;5069450;28;20413;-55
2021/09/20 08:45:19;;;;;;;18.33;9.68;;;17.10;99.90;;;;;;5069110;28;20380;-56
2021/09/20 08:47:49;;;;;;;19.38;10.27;;;17.10;99.90;;;;;;5068411;28;20465;-55
2021/09/20 08:50:17;;;;;;;18.00;10.38;;;17.20;99.90;;;;;;5069423;28;20380;-55
2021/09/20 08:52:43;;;;;;;19.85;10.00;;;17.20;99.90;;;;;;5069104;28;20442;-55
2021/09/20 08:55:09;;;;;;;17.70;9.77;;;17.30;99.90;;;;;;5068873;28;20943;-55
2021/09/20 08:57:36;;;;;;;19.27;9.68;;;17.20;99.90;;;;;;5069287;28;20441;-55
2021/09/20 09:00:05;;;;;;;19.05;9.18;;;17.00;99.90;;;;;;5068827;28;20368;-55
2021/09/20 09:02:31;;;;;;;20.30;10.45;;;17.00;99.90;;;;;;5069240;28;20372;-55
2021/09/20 09:05:20;;;;;;;16.58;9.85;;;16.90;99.90;;;;;;5068741;28;20398;-55
2021/09/20 09:07:55;;;;;;;18.35;10.65;;;17.00;99.90;;;;;;5069487;28;20383;-55
2021/09/20 09:10:26;;;;;;;26.75;10.70;;;16.90;99.90;;;;;;5068938;28;20380;-55
2021/09/20 09:12:53;;;;;;;16.95;10.35;;;16.90;99.90;;;;;;5068758;28;20379;-55
2021/09/20 09:15:22;;;;;;;17.40;10.02;;;17.10;99.90;;;;;;5069238;28;20472;-55
2021/09/20 09:17:53;;;;;;;16.88;9.80;;;17.30;99.90;;;;;;5068997;28;20414;-55
2021/09/20 09:20:24;;;;;;;17.50;9.68;;;17.20;99.90;;;;;;5069372;28;20458;-55
2021/09/20 09:22:53;;;;;;;18.25;10.40;;;17.10;99.90;;;;;;5068832;28;20388;-55
2021/09/20 09:25:24;;;;;;;16.23;9.48;;;16.90;99.90;;;;;;5069121;28;20449;-55
2021/09/20 09:27:59;;;;;;;18.52;9.98;;;16.90;99.90;;;;;;5067329;28;20388;-55
2021/09/20 09:30:39;;;;;;;16.65;10.68;;;16.90;99.90;;;;;;5069468;28;20421;-55
2021/09/20 09:33:20;;;;;;;17.60;9.85;;;17.10;99.90;;;;;;5068175;28;20412;-55
2021/09/20 09:35:52;;;;;;;17.30;9.73;;;17.10;99.90;;;;;;5068693;28;20408;-55
2021/09/20 09:38:19;;;;;;;15.32;9.30;;;17.20;99.90;;;;;;5070939;28;20492;-55
2021/09/20 09:40:59;;;;;;;18.10;9.90;;;17.30;99.90;;;;;;5072892;28;20410;-55
2021/09/20 09:43:31;;;;;;;19.60;9.82;;;17.50;99.90;;;;;;5073287;28;20433;-55
2021/09/20 09:45:59;;;;;;;16.27;9.18;;;17.40;99.90;;;;;;5071948;28;20388;-55
2021/09/20 09:48:28;;;;;;;13.73;8.32;;;17.20;99.90;;;;;;5072738;28;20429;-55
2021/09/20 09:50:58;;;;;;;14.67;8.97;;;17.20;99.90;;;;;;5072232;28;20371;-55
2021/09/20 09:53:25;;;;;;;16.45;8.82;;;17.10;99.90;;;;;;5072831;28;20407;-55
2021/09/20 09:55:51;;;;;;;18.77;10.30;;;17.10;99.90;;;;;;5070587;28;20518;-55
2021/09/20 09:58:17;;;;;;;14.73;8.87;;;17.10;99.90;;;;;;5072130;28;20596;-55
2021/09/20 10:00:46;;;;;;;17.27;9.70;;;17.10;99.90;;;;;;5072814;28;20425;-55
2021/09/20 10:03:11;;;;;;;16.88;9.43;;;17.00;99.90;;;;;;5071818;28;20379;-55
2021/09/20 10:05:38;;;;;;;15.20;9.40;;;17.10;99.90;;;;;;5072616;28;20809;-55
2021/09/20 10:08:11;;;;;;;16.50;9.05;;;17.00;99.90;;;;;;5071848;28;20386;-55
2021/09/20 10:10:38;;;;;;;17.30;8.53;;;17.10;99.90;;;;;;5072451;28;20387;-55
2021/09/20 10:13:04;;;;;;;16.58;8.70;;;17.30;99.90;;;;;;5071597;28;20371;-55
2021/09/20 10:15:34;;;;;;;14.55;9.15;;;17.30;99.90;;;;;;5072545;28;20710;-52
2021/09/20 10:18:01;;;;;;;18.02;9.48;;;17.50;99.90;;;;;;5071067;28;20446;-53
2021/09/20 10:20:28;;;;;;;16.55;8.90;;;17.70;99.90;;;;;;5072033;28;20372;-54
2021/09/20 10:22:55;;;;;;;14.45;9.27;;;17.70;99.90;;;;;;5071240;28;20478;-54
2021/09/20 10:25:30;;;;;;;15.15;9.35;;;17.90;99.90;;;;;;5071723;28;20736;-53
2021/09/20 10:27:58;;;;;;;15.57;9.20;;;17.90;99.90;;;;;;5071091;28;20379;-54
2021/09/20 10:30:42;;;;;;;14.50;9.13;;;18.00;99.90;;;;;;5071669;28;20774;-53
2021/09/20 10:33:09;;;;;;;14.57;9.40;;;17.90;99.90;;;;;;5071316;28;20459;-54
2021/09/20 10:36:01;;;;;;;18.30;9.98;;;17.90;99.90;;;;;;5071845;28;20470;-54
2021/09/20 10:38:32;;;;;;;18.30;11.30;;;17.90;99.90;;;;;;5070110;28;20430;-54
2021/09/20 10:41:14;;;;;;;21.38;10.77;;;18.00;99.90;;;;;;5071057;28;20416;-54
2021/09/20 10:43:42;;;;;;;17.77;10.23;;;18.10;99.90;;;;;;5071499;28;20860;-54
2021/09/20 10:46:32;;;;;;;20.77;10.77;;;18.10;99.90;;;;;;5071007;28;20389;-54
2021/09/20 10:49:01;;;;;;;18.40;11.40;;;18.30;99.90;;;;;;5068350;28;20570;-54
2021/09/20 10:51:39;;;;;;;19.20;10.20;;;18.50;99.90;;;;;;5071581;28;20376;-54
2021/09/20 10:54:17;;;;;;;19.25;10.65;;;18.60;99.90;;;;;;5070067;28;20785;-54
2021/09/20 10:56:45;;;;;;;18.30;9.77;;;18.40;99.90;;;;;;5070934;28;20432;-54
2021/09/20 10:59:12;;;;;;;19.48;10.82;;;18.60;99.90;;;;;;5069679;28;20464;-54
2021/09/20 11:01:42;;;;;;;18.40;9.90;;;18.60;99.90;;;;;;5069733;28;20399;-54
2021/09/20 11:04:20;;;;;;;17.05;10.63;;;18.80;99.90;;;;;;5070181;28;20494;-54
2021/09/20 11:07:03;;;;;;;18.15;10.25;;;18.90;99.90;;;;;;5071242;28;20387;-54
2021/09/20 11:09:31;;;;;;;21.33;12.73;;;19.00;99.90;;;;;;5070496;28;20403;-53
2021/09/20 11:12:07;;;;;;;20.50;11.38;;;19.10;99.90;;;;;;5069175;28;20386;-53
2021/09/20 11:14:42;;;;;;;19.20;11.30;;;18.60;99.90;;;;;;5065210;28;20388;-53
2021/09/20 11:17:31;;;;;;;19.70;11.23;;;18.50;99.90;;;;;;5062977;28;20422;-53
2021/09/20 11:20:03;;;;;;;19.02;11.00;;;18.70;99.90;;;;;;5060114;28;20450;-53
2021/09/20 11:22:32;;;;;;;19.20;10.20;;;18.80;99.90;;;;;;5065712;28;20866;-53
2021/09/20 11:25:09;;;;;;;17.67;10.65;;;18.90;99.90;;;;;;5066171;28;20402;-54
2021/09/20 11:28:01;;;;;;;18.40;10.13;;;19.00;99.90;;;;;;5069813;28;20437;-53
2021/09/20 11:30:27;;;;;;;17.50;10.70;;;19.00;99.90;;;;;;5065988;28;20484;-53
2021/09/20 11:32:55;;;;;;;19.37;11.07;;;18.90;99.90;;;;;;5067106;28;20424;-53
2021/09/20 11:35:23;;;;;;;17.17;10.20;;;19.00;99.90;;;;;;5069425;28;20400;-52
2021/09/20 11:37:50;;;;;;;17.03;10.30;;;19.10;99.90;;;;;;5069633;28;20456;-54
2021/09/20 11:40:21;;;;;;;15.93;9.57;;;18.90;99.90;;;;;;5068811;28;20833;-53
2021/09/20 11:42:52;;;;;;;15.38;9.40;;;19.00;99.90;;;;;;5069569;28;20385;-53
2021/09/20 11:45:19;;;;;;;18.13;10.75;;;19.00;99.90;;;;;;5069190;28;20375;-53
2021/09/20 11:47:53;;;;;;;17.83;10.40;;;18.90;99.90;;;;;;5067220;28;20392;-53
2021/09/20 11:50:29;;;;;;;16.75;10.75;;;18.90;99.90;;;;;;5069227;28;20380;-53
2021/09/20 11:52:57;;;;;;;17.67;10.30;;;19.10;99.90;;;;;;5068088;28;20384;-53
2021/09/20 11:55:25;;;;;;;16.42;9.90;;;19.20;99.90;;;;;;5068270;28;20415;-53
2021/09/20 11:57:57;;;;;;;17.85;10.85;;;19.40;99.90;;;;;;5069772;28;20449;-51
2021/09/20 12:00:28;;;;;;;16.90;10.63;;;19.70;99.90;;;;;;5069375;28;20387;-51
2021/09/20 12:02:56;;;;;;;15.35;9.60;;;19.60;99.90;;;;;;5069207;28;20864;-55
2021/09/20 12:05:30;;;;;;;17.88;9.27;;;19.70;99.90;;;;;;5070081;28;20399;-52
2021/09/20 12:08:00;;;;;;;16.58;10.40;;;19.90;99.90;;;;;;5068083;28;20391;-56
2021/09/20 12:10:30;;;;;;;17.52;10.25;;;20.10;99.90;;;;;;5068910;28;20394;-51
2021/09/20 12:12:58;;;;;;;17.35;10.25;;;20.30;99.90;;;;;;5068040;28;20383;-56
2021/09/20 12:15:27;;;;;;;17.17;10.02;;;20.20;99.90;;;;;;5069702;28;20372;-51
2021/09/20 12:18:00;;;;;;;15.65;10.52;;;20.30;99.90;;;;;;5069480;28;20403;-55
2021/09/20 12:20:35;;;;;;;15.25;9.50;;;20.10;99.90;;;;;;5068917;28;20426;-51
2021/09/20 12:23:04;;;;;;;15.32;9.70;;;20.00;99.90;;;;;;5068464;28;20384;-51
2021/09/20 12:25:32;;;;;;;16.63;9.50;;;20.30;99.90;;;;;;5068877;28;20462;-55
2021/09/20 12:27:59;;;;;;;16.70;9.68;;;20.40;99.90;;;;;;5068689;28;20399;-52
2021/09/20 12:30:27;;;;;;;13.45;8.93;;;20.50;99.90;;;;;;5069190;28;20429;-51
2021/09/20 12:33:12;;;;;;;13.90;9.13;;;20.80;99.90;;;;;;5068867;28;20818;-51
2021/09/20 12:35:40;;;;;;;15.55;10.15;;;20.80;99.90;;;;;;5065758;28;20834;-50
2021/09/20 12:38:25;;;;;;;13.73;9.68;;;20.50;99.90;;;;;;5066854;28;20408;-52